Aérodrome :
LOGIN :

S'inscrire | Disclaimer

   EN    FR    IT 

 










Légende :    VFR   VFR Marginal   IFR   IFR Intensif   IFR Très Intensif
Visi : 
Plafond : 
>= 8 km
>= 3000ft
5 à 8 km
1000 à 3000 ft
1500m à 5 km
500 à 1000 ft
800 à 1500m
200 à 500 ft
< 800m
< 200 ft
Symboles :   Orages  Brouillard  Fortes neiges  Fortes précipitations  Vent > 20 kt
SIGMETs :   Divers  Orages  Givrage  Turbulence  Onde Orograph.  Cendres Volcan.






- Altitude de l'aérodrome : 267 ft


EGDR - Culdrose Navy

DERNIER METAR :
  • 301450Z AUTO 28015KT 9999 // FEW024/// BKN033/// 18/13 Q1010

METARs EXPIRÉS :
  • 301350Z AUTO 28015KT 9999 // SCT021/// SCT027/// 18/13 Q1009
  • 301250Z AUTO 28015KT 9999 // SCT021/// SCT029/// 18/12 Q1009

TAF AMD TAF EGDR
Valide du 30 à 09h jusqu'au 30 à 18h UTC


301050Z 3009/3018 27020G30KT 9999 BKN018
TEMPO 3009/3018 BKN025
TEMPO 3009/3018 27024G34KT 3700 SHRA FEW006 SCT008 BKN012CB



MET'MAP, la Météo Aéronautique d'un coup d'oeil ! - Copyright ORBIFLY Décembre 2007 - Disclaimer

ORBIFLY MET'MAP TEAM :

Programmation & Développement : Alexandra Zaïnal
Sur une idée originale de : Baudouin d'Aumeries
Assistance à la programmation : Marc-Olivier Méhu
Soutien technique & logistique : Manuel Goepfert

Contact : metmap@orbifly.com




SOURCES & CREDITS :

   NOAA